Time;durP1;ratioP1;P1;durP2;ratioP2;P2;SDS_P1;SDS_P2;PMS_P1;PMS_P2;Temp;Humidity;BMP_temperature;BMP_pressure;BME280_temperature;BME280_humidity;BME280_pressure;Samples;Min_cycle;Max_cycle;Signal;HPM_P1;HPM_P2
2022/05/26 00:01:10;;;;;;;5.68;2.60;;;;;;;;;;6321749;22;20042;-96
2022/05/26 00:03:45;;;;;;;6.05;2.80;;;;;;;;;;6346854;22;20018;-96
2022/05/26 00:06:37;;;;;;;4.00;2.50;;;;;;;;;;6326489;22;20021;-96
2022/05/26 00:09:05;;;;;;;4.70;3.00;;;;;;;;;;6321783;22;20026;-96
2022/05/26 00:11:35;;;;;;;4.63;2.88;;;;;;;;;;6348872;22;20038;-96
2022/05/26 00:14:11;;;;;;;6.22;3.00;;;;;;;;;;6323079;22;20309;-94
2022/05/26 00:16:42;;;;;;;5.05;3.40;;;;;;;;;;6316482;22;20510;-94
2022/05/26 00:19:13;;;;;;;4.30;2.85;;;;;;;;;;6351422;22;20093;-94
2022/05/26 00:21:41;;;;;;;6.10;3.00;;;;;;;;;;6352343;22;20022;-93
2022/05/26 00:24:09;;;;;;;4.28;2.72;;;;;;;;;;6351652;22;20033;-94
2022/05/26 00:26:37;;;;;;;10.23;3.72;;;;;;;;;;6291182;22;20022;-94
2022/05/26 00:29:05;;;;;;;5.80;3.15;;;;;;;;;;6315411;22;20026;-94
2022/05/26 00:32:21;;;;;;;7.22;3.80;;;;;;;;;;6341166;22;20095;-94
2022/05/26 00:35:15;;;;;;;6.43;3.70;;;;;;;;;;6315623;22;20060;-94
2022/05/26 00:37:47;;;;;;;5.78;3.63;;;;;;;;;;6314934;22;20018;-93
2022/05/26 00:40:19;;;;;;;8.63;3.75;;;;;;;;;;6316553;22;20018;-94
2022/05/26 00:43:12;;;;;;;6.45;3.45;;;;;;;;;;6296144;22;20033;-94
2022/05/26 00:46:44;;;;;;;7.47;3.35;;;;;;;;;;6345990;22;20019;-96
2022/05/26 00:49:19;;;;;;;7.05;3.97;;;;;;;;;;6346166;22;20076;-96
2022/05/26 00:52:17;;;;;;;6.07;3.33;;;;;;;;;;6326029;22;20030;-96
2022/05/26 00:54:52;;;;;;;8.85;3.30;;;;;;;;;;6321960;22;20026;-96
2022/05/26 00:57:33;;;;;;;8.60;3.75;;;;;;;;;;6295514;22;20030;-96
2022/05/26 01:00:17;;;;;;;9.30;3.63;;;;;;;;;;6321262;22;20022;-96
2022/05/26 01:03:08;;;;;;;5.95;3.83;;;;;;;;;;6321573;22;20026;-96
2022/05/26 01:05:59;;;;;;;6.63;3.67;;;;;;;;;;6322833;22;20023;-96
2022/05/26 01:08:57;;;;;;;7.50;3.88;;;;;;;;;;6328248;22;20050;-96
2022/05/26 01:11:49;;;;;;;14.23;4.65;;;;;;;;;;6326337;22;20033;-96
2022/05/26 01:14:48;;;;;;;8.00;4.10;;;;;;;;;;6302085;22;20352;-96
2022/05/26 01:17:52;;;;;;;9.25;4.35;;;;;;;;;;6301265;22;20021;-96
2022/05/26 01:20:44;;;;;;;9.07;3.75;;;;;;;;;;6299618;22;20022;-96
2022/05/26 01:23:27;;;;;;;6.97;4.07;;;;;;;;;;6298377;22;20022;-96
2022/05/26 01:26:07;;;;;;;9.82;4.30;;;;;;;;;;6324248;22;20029;-96
2022/05/26 01:28:47;;;;;;;9.65;4.05;;;;;;;;;;6326065;22;20034;-96
2022/05/26 01:32:15;;;;;;;7.88;4.53;;;;;;;;;;6350801;22;20022;-96
2022/05/26 01:35:22;;;;;;;6.80;4.43;;;;;;;;;;6326382;22;20042;-94
2022/05/26 01:38:30;;;;;;;8.18;5.15;;;;;;;;;;6340549;22;20445;-94
2022/05/26 01:41:09;;;;;;;6.82;3.90;;;;;;;;;;6291195;22;20019;-94
2022/05/26 01:44:09;;;;;;;7.18;4.30;;;;;;;;;;6315146;22;20030;-94
2022/05/26 01:46:45;;;;;;;9.32;3.83;;;;;;;;;;6350242;22;20023;-96
2022/05/26 01:49:45;;;;;;;6.10;3.97;;;;;;;;;;6323291;22;20030;-96
2022/05/26 01:52:27;;;;;;;9.35;3.85;;;;;;;;;;6297392;22;20059;-96
2022/05/26 01:55:23;;;;;;;7.88;3.60;;;;;;;;;;6294079;22;20356;-94
2022/05/26 01:58:01;;;;;;;6.13;3.15;;;;;;;;;;6351608;22;20015;-94
2022/05/26 02:00:55;;;;;;;8.48;3.95;;;;;;;;;;6350373;22;20032;-94
2022/05/26 02:03:28;;;;;;;6.72;3.70;;;;;;;;;;6323636;22;20101;-94
2022/05/26 02:06:02;;;;;;;8.57;3.67;;;;;;;;;;6356281;22;20391;-96
2022/05/26 02:08:37;;;;;;;8.20;3.90;;;;;;;;;;6322310;22;20049;-96
2022/05/26 02:11:11;;;;;;;9.57;4.32;;;;;;;;;;6297771;22;20033;-96
2022/05/26 02:13:53;;;;;;;17.77;4.20;;;;;;;;;;6300105;22;20056;-96
2022/05/26 02:16:43;;;;;;;10.57;4.20;;;;;;;;;;6298763;22;20018;-96
2022/05/26 02:19:16;;;;;;;6.30;3.85;;;;;;;;;;6326781;22;20019;-96
2022/05/26 02:22:18;;;;;;;8.18;3.72;;;;;;;;;;6301384;22;20053;-96
2022/05/26 02:25:00;;;;;;;10.73;4.55;;;;;;;;;;6299159;22;20459;-96
2022/05/26 02:27:31;;;;;;;12.98;4.38;;;;;;;;;;6326924;22;20019;-96
2022/05/26 02:30:03;;;;;;;9.18;3.78;;;;;;;;;;6302150;22;20030;-96
2022/05/26 02:32:38;;;;;;;11.20;4.50;;;;;;;;;;6326245;22;20430;-96
2022/05/26 02:35:20;;;;;;;8.93;4.32;;;;;;;;;;6297368;22;20113;-94
2022/05/26 02:37:51;;;;;;;11.80;4.45;;;;;;;;;;6314566;22;20023;-94
2022/05/26 02:40:45;;;;;;;8.52;4.07;;;;;;;;;;6350704;22;20068;-94
2022/05/26 02:43:21;;;;;;;9.88;4.10;;;;;;;;;;6339941;22;20023;-94
2022/05/26 02:46:18;;;;;;;9.00;4.47;;;;;;;;;;6343693;22;20018;-94
2022/05/26 02:49:12;;;;;;;8.55;4.10;;;;;;;;;;6314333;22;20557;-94
2022/05/26 02:52:04;;;;;;;8.82;4.72;;;;;;;;;;6350300;22;20010;-94
2022/05/26 02:55:47;;;;;;;13.90;4.88;;;;;;;;;;6353089;22;20086;-94
2022/05/26 02:58:39;;;;;;;10.70;4.63;;;;;;;;;;6310767;22;20106;-94
2022/05/26 03:01:26;;;;;;;11.35;4.47;;;;;;;;;;6350875;22;20408;-94
2022/05/26 03:04:07;;;;;;;9.23;4.50;;;;;;;;;;6351687;22;20103;-95
2022/05/26 03:07:08;;;;;;;9.70;4.75;;;;;;;;;;6340083;22;20018;-94
2022/05/26 03:09:42;;;;;;;8.60;4.47;;;;;;;;;;6349522;22;20104;-94
2022/05/26 03:12:35;;;;;;;10.43;4.97;;;;;;;;;;6350215;22;20022;-94
2022/05/26 03:15:06;;;;;;;10.45;5.00;;;;;;;;;;6343316;22;20085;-96
2022/05/26 03:17:39;;;;;;;13.38;5.53;;;;;;;;;;6326817;22;20093;-96
2022/05/26 03:20:16;;;;;;;10.23;4.95;;;;;;;;;;6328552;22;20022;-96
2022/05/26 03:23:11;;;;;;;7.93;4.57;;;;;;;;;;6351367;22;20053;-96
2022/05/26 03:25:46;;;;;;;9.88;4.55;;;;;;;;;;6319698;22;20019;-94
2022/05/26 03:28:39;;;;;;;10.10;4.78;;;;;;;;;;6342054;22;20030;-94
2022/05/26 03:31:08;;;;;;;9.75;4.38;;;;;;;;;;6341748;22;20033;-93
2022/05/26 03:42:09;;;;;;;8.70;4.90;;;;;;;;;;6329167;22;20463;-96
2022/05/26 03:45:02;;;;;;;11.10;4.80;;;;;;;;;;6331037;22;20023;-96
2022/05/26 03:47:32;;;;;;;12.90;4.32;;;;;;;;;;6359311;22;20027;-96
2022/05/26 03:50:04;;;;;;;11.02;4.68;;;;;;;;;;6310072;22;20023;-96
2022/05/26 03:52:35;;;;;;;9.90;4.28;;;;;;;;;;6308918;22;20086;-96
2022/05/26 03:55:27;;;;;;;9.27;4.50;;;;;;;;;;6351016;22;20041;-94
2022/05/26 03:58:19;;;;;;;9.05;4.45;;;;;;;;;;6315746;22;20387;-95
2022/05/26 04:00:47;;;;;;;8.02;4.10;;;;;;;;;;6352340;22;20015;-94
2022/05/26 04:03:41;;;;;;;9.93;4.00;;;;;;;;;;6341911;22;20023;-94
2022/05/26 04:06:09;;;;;;;9.30;4.10;;;;;;;;;;6319604;22;20084;-93
2022/05/26 04:08:37;;;;;;;11.13;4.53;;;;;;;;;;6352437;22;20023;-94
2022/05/26 04:11:31;;;;;;;11.43;3.85;;;;;;;;;;6321058;22;20106;-94
2022/05/26 04:13:59;;;;;;;9.05;3.70;;;;;;;;;;6352543;22;20468;-96
2022/05/26 04:16:53;;;;;;;11.43;4.93;;;;;;;;;;6352359;22;20348;-94
2022/05/26 04:19:21;;;;;;;10.50;4.30;;;;;;;;;;6352020;22;20015;-94
2022/05/26 04:24:50;;;;;;;7.95;4.57;;;;;;;;;;6355379;22;20499;-94
2022/05/26 04:27:47;;;;;;;8.80;4.20;;;;;;;;;;6311579;22;20062;-96
2022/05/26 04:30:17;;;;;;;10.15;4.45;;;;;;;;;;6245568;23;20012;-97
2022/05/26 04:33:21;;;;;;;7.13;3.88;;;;;;;;;;6244595;23;20039;-96
2022/05/26 04:36:04;;;;;;;9.15;3.80;;;;;;;;;;6192845;23;20004;-96
2022/05/26 04:38:35;;;;;;;7.78;3.65;;;;;;;;;;6216967;23;20028;-97
2022/05/26 04:41:38;;;;;;;10.77;4.93;;;;;;;;;;6249529;23;20075;-96
2022/05/26 04:44:16;;;;;;;11.43;4.00;;;;;;;;;;6162551;23;20096;-95
2022/05/26 04:46:43;;;;;;;6.85;3.65;;;;;;;;;;6227378;23;20017;-94
2022/05/26 04:49:11;;;;;;;8.60;4.15;;;;;;;;;;6166933;23;20383;-94
2022/05/26 04:52:07;;;;;;;10.90;4.18;;;;;;;;;;6171939;23;20023;-94
2022/05/26 04:54:39;;;;;;;12.30;4.28;;;;;;;;;;6181210;23;20063;-95
2022/05/26 04:57:15;;;;;;;11.32;3.90;;;;;;;;;;6234813;23;20017;-96
2022/05/26 04:59:43;;;;;;;9.18;3.83;;;;;;;;;;6190200;23;20047;-96
2022/05/26 05:07:18;;;;;;;8.82;3.30;;;;;;;;;;6180078;23;20013;-96
2022/05/26 05:10:00;;;;;;;8.27;3.42;;;;;;;;;;6190143;23;20096;-96
2022/05/26 05:12:57;;;;;;;9.63;3.95;;;;;;;;;;6208339;23;20076;-96
2022/05/26 05:15:46;;;;;;;8.05;3.65;;;;;;;;;;6205693;23;20020;-96
2022/05/26 05:18:15;;;;;;;8.65;3.22;;;;;;;;;;6160349;23;20054;-96
2022/05/26 05:20:48;;;;;;;7.20;3.55;;;;;;;;;;6210663;23;20497;-96
2022/05/26 05:23:50;;;;;;;12.70;3.58;;;;;;;;;;6166491;23;20051;-96
2022/05/26 05:26:22;;;;;;;11.95;3.38;;;;;;;;;;6146233;23;20024;-94
2022/05/26 05:29:00;;;;;;;9.43;3.10;;;;;;;;;;6202182;23;20024;-94
2022/05/26 05:31:39;;;;;;;11.32;3.92;;;;;;;;;;6143444;23;20031;-95
2022/05/26 05:34:26;;;;;;;12.02;3.28;;;;;;;;;;6204712;23;20028;-96
2022/05/26 05:36:53;;;;;;;7.15;2.88;;;;;;;;;;6167352;23;20116;-94
2022/05/26 05:39:47;;;;;;;6.30;3.00;;;;;;;;;;6225433;22;20030;-94
2022/05/26 05:42:21;;;;;;;9.65;3.13;;;;;;;;;;6295918;22;20022;-95
2022/05/26 05:44:49;;;;;;;9.82;3.42;;;;;;;;;;6286260;22;20027;-94
2022/05/26 05:47:17;;;;;;;8.85;2.72;;;;;;;;;;6259329;22;20104;-94
2022/05/26 05:50:09;;;;;;;12.15;2.95;;;;;;;;;;6284025;22;20018;-95
2022/05/26 05:52:37;;;;;;;7.93;2.45;;;;;;;;;;6284063;22;20404;-95
2022/05/26 05:55:30;;;;;;;8.35;2.63;;;;;;;;;;6291443;22;20027;-94
2022/05/26 05:57:59;;;;;;;8.48;2.40;;;;;;;;;;6284243;22;20019;-95
2022/05/26 06:03:23;;;;;;;5.75;2.30;;;;;;;;;;6283778;22;20027;-94
2022/05/26 06:05:51;;;;;;;7.35;2.70;;;;;;;;;;6286617;22;20042;-94
2022/05/26 06:08:25;;;;;;;6.07;2.55;;;;;;;;;;6283997;22;20480;-94
2022/05/26 06:10:58;;;;;;;11.38;2.58;;;;;;;;;;6284931;22;20019;-95
2022/05/26 06:13:31;;;;;;;14.00;2.88;;;;;;;;;;6319612;22;20015;-95
2022/05/26 06:16:03;;;;;;;8.43;3.17;;;;;;;;;;6303609;22;20021;-96
2022/05/26 06:18:56;;;;;;;8.02;2.40;;;;;;;;;;6299146;22;20406;-96
2022/05/26 06:21:39;;;;;;;8.48;2.90;;;;;;;;;;6278980;22;20014;-97
2022/05/26 06:24:25;;;;;;;7.22;2.15;;;;;;;;;;6261110;22;20023;-96
2022/05/26 06:26:55;;;;;;;7.28;1.88;;;;;;;;;;6233335;22;20353;-96
2022/05/26 06:38:00;;;;;;;6.30;2.15;;;;;;;;;;6250635;22;20016;-94
2022/05/26 06:40:35;;;;;;;6.40;2.10;;;;;;;;;;6250882;22;20031;-94
2022/05/26 06:43:03;;;;;;;8.70;2.00;;;;;;;;;;6260923;22;20214;-94
2022/05/26 06:45:32;;;;;;;6.50;1.70;;;;;;;;;;6269422;22;20023;-97
2022/05/26 06:48:30;;;;;;;7.20;1.88;;;;;;;;;;6265516;22;20429;-96
2022/05/26 06:51:07;;;;;;;11.38;2.42;;;;;;;;;;6240395;22;20027;-96
2022/05/26 06:53:35;;;;;;;6.63;1.92;;;;;;;;;;6237337;22;20024;-96
2022/05/26 06:56:03;;;;;;;9.55;1.75;;;;;;;;;;6229427;22;20030;-96
2022/05/26 06:58:31;;;;;;;8.27;1.95;;;;;;;;;;6253311;22;20458;-96
2022/05/26 07:00:59;;;;;;;7.80;1.80;;;;;;;;;;6260412;22;20027;-94
2022/05/26 07:03:31;;;;;;;11.90;2.30;;;;;;;;;;6285349;22;20023;-96
2022/05/26 07:05:59;;;;;;;8.57;2.05;;;;;;;;;;6295557;22;20015;-96
2022/05/26 07:11:19;;;;;;;6.43;1.90;;;;;;;;;;6321453;22;20023;-96
2022/05/26 07:14:07;;;;;;;7.95;1.95;;;;;;;;;;6322091;22;20039;-96
2022/05/26 07:17:12;;;;;;;7.25;1.90;;;;;;;;;;6312854;22;20389;-96
2022/05/26 07:19:39;;;;;;;9.82;2.03;;;;;;;;;;6310049;22;20072;-96
2022/05/26 07:22:34;;;;;;;7.90;1.95;;;;;;;;;;6291065;22;20027;-96
2022/05/26 07:25:08;;;;;;;7.55;1.75;;;;;;;;;;6285414;22;20023;-96
2022/05/26 07:27:35;;;;;;;6.07;1.80;;;;;;;;;;6310666;22;20023;-96
2022/05/26 07:30:05;;;;;;;5.60;1.83;;;;;;;;;;6284850;22;20023;-96
2022/05/26 07:32:37;;;;;;;5.32;1.50;;;;;;;;;;6285542;22;20027;-96
2022/05/26 07:35:09;;;;;;;5.25;1.33;;;;;;;;;;6284883;22;20330;-96
2022/05/26 07:43:34;;;;;;;7.13;1.60;;;;;;;;;;6285034;22;20522;-96
2022/05/26 07:46:01;;;;;;;7.30;1.33;;;;;;;;;;6320843;22;20022;-95
2022/05/26 07:48:29;;;;;;;4.95;1.30;;;;;;;;;;6309308;22;20015;-95
2022/05/26 07:50:57;;;;;;;3.40;1.02;;;;;;;;;;6320418;22;20479;-95
2022/05/26 07:53:29;;;;;;;5.50;1.13;;;;;;;;;;6320014;22;20019;-96
2022/05/26 07:56:02;;;;;;;3.95;0.80;;;;;;;;;;6261701;22;20065;-93
2022/05/26 07:58:29;;;;;;;6.20;1.00;;;;;;;;;;6318871;22;20016;-94
2022/05/26 08:00:57;;;;;;;4.18;0.98;;;;;;;;;;6308092;22;20023;-94
2022/05/26 08:03:25;;;;;;;4.40;1.20;;;;;;;;;;6319375;22;20015;-95
2022/05/26 08:06:00;;;;;;;5.25;0.88;;;;;;;;;;6262981;22;20038;-96
2022/05/26 08:08:29;;;;;;;5.15;0.75;;;;;;;;;;6309879;22;20020;-96
2022/05/26 08:11:21;;;;;;;6.28;1.30;;;;;;;;;;6283806;22;20022;-96
2022/05/26 08:13:49;;;;;;;6.28;1.00;;;;;;;;;;6313057;22;20053;-96
2022/05/26 08:16:17;;;;;;;5.78;0.90;;;;;;;;;;6285582;22;20023;-95
2022/05/26 08:18:50;;;;;;;4.60;1.05;;;;;;;;;;6321306;22;20015;-95
2022/05/26 08:21:18;;;;;;;4.00;0.90;;;;;;;;;;6285702;22;20334;-95
2022/05/26 08:23:45;;;;;;;4.97;0.93;;;;;;;;;;6260696;22;20053;-95
2022/05/26 08:26:14;;;;;;;7.72;0.98;;;;;;;;;;6285029;22;20019;-95
2022/05/26 08:28:42;;;;;;;5.63;0.65;;;;;;;;;;6310365;22;20015;-95
2022/05/26 08:31:16;;;;;;;6.30;1.00;;;;;;;;;;6296011;22;20011;-95
2022/05/26 08:33:43;;;;;;;3.72;0.93;;;;;;;;;;6285095;22;20517;-96
2022/05/26 08:36:14;;;;;;;4.70;0.70;;;;;;;;;;6287229;22;20021;-96
2022/05/26 08:38:45;;;;;;;4.65;0.82;;;;;;;;;;6265488;22;20019;-96
2022/05/26 08:41:22;;;;;;;6.75;1.40;;;;;;;;;;6312159;22;20089;-92
2022/05/26 08:43:57;;;;;;;3.92;0.77;;;;;;;;;;6284538;22;20027;-93
2022/05/26 08:47:01;;;;;;;4.95;0.98;;;;;;;;;;6285635;22;20011;-96
2022/05/26 08:49:52;;;;;;;5.70;1.13;;;;;;;;;;6311724;22;20069;-93
2022/05/26 08:52:46;;;;;;;6.07;1.15;;;;;;;;;;6260899;22;20107;-95
2022/05/26 08:55:21;;;;;;;5.75;1.60;;;;;;;;;;6278568;22;20027;-96
2022/05/26 08:58:08;;;;;;;6.30;0.88;;;;;;;;;;6261444;22;20023;-96
2022/05/26 09:00:38;;;;;;;4.63;0.98;;;;;;;;;;6260429;22;20030;-95
2022/05/26 09:03:27;;;;;;;4.20;0.77;;;;;;;;;;6296716;22;20106;-94
2022/05/26 09:06:05;;;;;;;2.45;0.70;;;;;;;;;;6295750;22;20072;-94
2022/05/26 09:15:09;;;;;;;2.97;0.80;;;;;;;;;;6322511;22;20421;-96
2022/05/26 09:17:37;;;;;;;4.50;0.90;;;;;;;;;;6326340;22;20022;-96
2022/05/26 09:20:39;;;;;;;8.48;1.63;;;;;;;;;;6299438;22;20023;-96
2022/05/26 09:23:28;;;;;;;5.75;1.17;;;;;;;;;;6321370;22;20016;-96
2022/05/26 09:26:11;;;;;;;3.45;0.98;;;;;;;;;;6285758;22;20034;-96
2022/05/26 09:28:50;;;;;;;4.60;0.77;;;;;;;;;;6285344;22;20023;-96
2022/05/26 09:31:34;;;;;;;4.60;0.90;;;;;;;;;;6261639;22;20337;-96
2022/05/26 09:34:09;;;;;;;5.68;0.90;;;;;;;;;;6311629;22;20030;-94
2022/05/26 09:36:37;;;;;;;3.42;0.80;;;;;;;;;;6311770;22;20027;-94
2022/05/26 09:39:12;;;;;;;5.13;0.88;;;;;;;;;;6286157;22;20111;-95
2022/05/26 09:41:42;;;;;;;2.35;0.70;;;;;;;;;;6284679;22;20022;-94
2022/05/26 09:44:23;;;;;;;5.05;0.90;;;;;;;;;;6285519;22;20083;-95
2022/05/26 09:46:54;;;;;;;5.32;0.68;;;;;;;;;;6285649;22;20050;-95
2022/05/26 09:49:25;;;;;;;3.50;0.85;;;;;;;;;;6310981;22;20445;-95
2022/05/26 09:52:25;;;;;;;2.40;0.73;;;;;;;;;;6286026;22;20023;-95
2022/05/26 09:55:08;;;;;;;;;;;;;;;;;;6283384;22;20076;-96
2022/05/26 09:57:35;;;;;;;3.78;0.75;;;;;;;;;;6259406;22;19919;-96
2022/05/26 10:00:43;;;;;;;4.82;1.10;;;;;;;;;;6311364;22;20046;-96
2022/05/26 10:03:24;;;;;;;4.20;0.50;;;;;;;;;;6197572;23;20047;-96
2022/05/26 10:06:19;;;;;;;6.53;1.38;;;;;;;;;;6197893;23;20034;-95
2022/05/26 10:09:19;;;;;;;;;;;;;;;;;;6222775;23;20107;-96
2022/05/26 10:12:04;;;;;;;4.00;0.60;;;;;;;;;;6114509;23;19916;-96
2022/05/26 10:15:18;;;;;;;3.25;1.10;;;;;;;;;;6141762;23;20463;-95
2022/05/26 10:18:18;;;;;;;3.60;0.80;;;;;;;;;;6024393;23;20049;-96
2022/05/26 10:26:05;;;;;;;3.33;0.77;;;;;;;;;;6075688;23;20049;-96
2022/05/26 10:28:36;;;;;;;;;;;;;;;;;;6047686;23;20038;-96
2022/05/26 10:31:15;;;;;;;4.30;0.88;;;;;;;;;;6031065;23;19918;-96
2022/05/26 10:34:08;;;;;;;8.23;1.10;;;;;;;;;;6048859;23;20023;-96
2022/05/26 10:37:04;;;;;;;6.13;1.13;;;;;;;;;;6051871;23;20061;-96
2022/05/26 10:39:53;;;;;;;;;;;;;;;;;;6079941;23;20108;-96
2022/05/26 10:42:28;;;;;;;4.07;0.70;;;;;;;;;;6094063;23;19923;-96
2022/05/26 10:45:06;;;;;;;3.78;1.20;;;;;;;;;;6092096;23;20026;-96
2022/05/26 10:47:45;;;;;;;4.60;1.17;;;;;;;;;;6155822;23;20028;-96
2022/05/26 10:51:11;;;;;;;3.50;1.00;;;;;;;;;;6167827;23;20020;-96
2022/05/26 10:58:18;;;;;;;7.68;1.10;;;;;;;;;;6335536;22;20113;-88
2022/05/26 11:00:58;;;;;;;4.97;1.00;;;;;;;;;;6281931;22;20037;-90
2022/05/26 11:03:45;;;;;;;3.38;0.77;;;;;;;;;;6282318;22;20030;-90
2022/05/26 11:06:33;;;;;;;6.20;1.00;;;;;;;;;;6318683;22;20045;-90
2022/05/26 11:09:10;;;;;;;4.63;1.10;;;;;;;;;;6318654;22;20038;-89
2022/05/26 11:11:54;;;;;;;6.80;0.90;;;;;;;;;;6257795;22;20023;-88
2022/05/26 11:18:16;;;;;;;2.50;0.63;;;;;;;;;;6282925;22;20026;-92
2022/05/26 11:21:12;;;;;;;4.30;0.82;;;;;;;;;;6190086;23;20012;-92
2022/05/26 11:23:41;;;;;;;3.35;0.85;;;;;;;;;;6189072;23;20038;-91
2022/05/26 11:26:43;;;;;;;5.18;0.80;;;;;;;;;;6224204;23;20347;-89
2022/05/26 11:29:40;;;;;;;2.30;0.52;;;;;;;;;;6194387;23;20016;-88
2022/05/26 11:38:33;;;;;;;4.40;0.73;;;;;;;;;;6215491;23;20308;-90
2022/05/26 11:41:01;;;;;;;3.03;1.20;;;;;;;;;;6191121;23;20317;-90
2022/05/26 11:43:42;;;;;;;4.72;0.98;;;;;;;;;;6218059;23;20062;-90
2022/05/26 11:46:46;;;;;;;3.40;0.68;;;;;;;;;;6192718;23;20019;-89
2022/05/26 11:49:43;;;;;;;3.75;0.75;;;;;;;;;;6192355;23;20583;-90
2022/05/26 11:52:35;;;;;;;3.03;0.90;;;;;;;;;;6198205;23;20023;-91
2022/05/26 11:55:43;;;;;;;2.88;0.60;;;;;;;;;;6192942;23;20062;-92
2022/05/26 11:58:32;;;;;;;7.20;0.90;;;;;;;;;;6348192;22;20010;-91
2022/05/26 12:01:19;;;;;;;3.63;0.70;;;;;;;;;;6285962;22;20023;-93
2022/05/26 12:04:00;;;;;;;4.20;0.80;;;;;;;;;;6287410;22;20045;-92
2022/05/26 12:06:42;;;;;;;2.47;0.70;;;;;;;;;;6263179;22;20023;-92
2022/05/26 12:09:21;;;;;;;5.07;0.70;;;;;;;;;;6286980;22;20018;-93
2022/05/26 12:12:17;;;;;;;2.67;0.77;;;;;;;;;;6262252;22;20027;-92
2022/05/26 12:14:54;;;;;;;4.13;0.68;;;;;;;;;;6261315;22;20114;-92
2022/05/26 12:17:50;;;;;;;2.65;1.10;;;;;;;;;;6288190;22;20031;-92
2022/05/26 12:20:24;;;;;;;5.00;1.85;;;;;;;;;;6323044;22;20018;-91
2022/05/26 12:23:24;;;;;;;5.30;0.95;;;;;;;;;;6311574;22;20029;-90
2022/05/26 12:26:28;;;;;;;7.10;2.30;;;;;;;;;;6320974;22;20014;-89
2022/05/26 12:29:46;;;;;;;5.13;0.82;;;;;;;;;;6289377;22;20026;-87
2022/05/26 12:32:17;;;;;;;3.33;0.80;;;;;;;;;;6322211;22;20019;-89
2022/05/26 12:35:16;;;;;;;2.33;0.60;;;;;;;;;;6285826;22;20109;-90
2022/05/26 12:38:03;;;;;;;3.78;0.90;;;;;;;;;;6284455;22;20031;-89
2022/05/26 12:40:55;;;;;;;7.13;1.02;;;;;;;;;;6320340;22;20014;-90
2022/05/26 12:44:04;;;;;;;5.50;1.10;;;;;;;;;;6290132;22;20030;-88
2022/05/26 12:46:47;;;;;;;6.25;1.38;;;;;;;;;;6284878;22;20758;-87
2022/05/26 12:49:36;;;;;;;4.97;0.65;;;;;;;;;;6320405;22;20014;-89
2022/05/26 12:52:40;;;;;;;6.13;0.93;;;;;;;;;;6309193;22;20035;-88
2022/05/26 12:55:13;;;;;;;2.05;0.70;;;;;;;;;;6282859;22;20037;-87
2022/05/26 12:57:45;;;;;;;5.10;1.27;;;;;;;;;;6320734;22;20449;-88
2022/05/26 13:00:23;;;;;;;6.78;0.90;;;;;;;;;;6320233;22;20101;-89
2022/05/26 13:02:54;;;;;;;6.13;0.98;;;;;;;;;;6319963;22;20095;-87
2022/05/26 13:05:52;;;;;;;4.63;1.00;;;;;;;;;;6318731;22;20007;-89
2022/05/26 13:08:23;;;;;;;5.53;1.05;;;;;;;;;;6283216;22;20101;-88
2022/05/26 13:10:58;;;;;;;5.43;1.77;;;;;;;;;;6320156;22;20022;-88
2022/05/26 13:13:49;;;;;;;3.83;0.95;;;;;;;;;;6282818;22;20033;-87
2022/05/26 13:16:43;;;;;;;4.00;1.00;;;;;;;;;;6289156;22;20037;-89
2022/05/26 13:19:21;;;;;;;3.97;0.90;;;;;;;;;;6318910;22;20021;-89
2022/05/26 13:21:51;;;;;;;3.50;0.80;;;;;;;;;;6283941;22;20023;-88
2022/05/26 13:24:31;;;;;;;6.00;0.95;;;;;;;;;;6321092;22;20044;-88
2022/05/26 13:27:09;;;;;;;4.15;1.02;;;;;;;;;;6310912;22;20057;-86
2022/05/26 13:29:42;;;;;;;3.63;0.80;;;;;;;;;;6319500;22;20022;-87
2022/05/26 13:35:16;;;;;;;4.25;0.80;;;;;;;;;;6347270;22;20014;-88
2022/05/26 13:37:49;;;;;;;5.65;0.98;;;;;;;;;;6320756;22;20010;-87
2022/05/26 13:40:24;;;;;;;6.30;0.90;;;;;;;;;;6320992;22;20015;-88
2022/05/26 13:43:16;;;;;;;5.90;0.93;;;;;;;;;;6284179;22;20060;-86
2022/05/26 13:45:45;;;;;;;4.97;1.20;;;;;;;;;;6283733;22;20030;-87
2022/05/26 13:48:26;;;;;;;6.55;0.80;;;;;;;;;;6309495;22;20015;-90
2022/05/26 13:51:08;;;;;;;2.53;0.90;;;;;;;;;;6320801;22;20097;-87
2022/05/26 13:56:37;;;;;;;;;;;;;;;;;;6320763;22;20023;-88
2022/05/26 13:59:09;;;;;;;3.78;1.27;;;;;;;;;;6321072;22;19914;-87
2022/05/26 14:02:05;;;;;;;4.00;1.05;;;;;;;;;;6321890;22;20075;-87
2022/05/26 14:04:37;;;;;;;3.95;0.98;;;;;;;;;;6305385;22;20058;-90
2022/05/26 14:07:32;;;;;;;2.90;0.80;;;;;;;;;;6311030;22;20042;-89
2022/05/26 14:10:05;;;;;;;6.43;1.00;;;;;;;;;;6308477;22;20484;-87
2022/05/26 14:12:33;;;;;;;3.95;0.95;;;;;;;;;;6320532;22;20460;-89
2022/05/26 14:15:01;;;;;;;3.85;1.02;;;;;;;;;;6319862;22;20019;-88
2022/05/26 14:17:36;;;;;;;3.72;0.80;;;;;;;;;;6345004;22;20022;-88
2022/05/26 14:21:04;;;;;;;6.90;1.08;;;;;;;;;;6289543;22;20445;-86
2022/05/26 14:24:04;;;;;;;7.05;1.17;;;;;;;;;;6324799;22;20023;-88
2022/05/26 14:26:44;;;;;;;4.03;1.17;;;;;;;;;;6308047;22;20026;-89
2022/05/26 14:29:37;;;;;;;5.43;1.33;;;;;;;;;;6308973;22;20099;-89
2022/05/26 14:32:16;;;;;;;4.28;1.00;;;;;;;;;;6282829;22;20353;-90
2022/05/26 14:34:51;;;;;;;4.72;1.10;;;;;;;;;;6284511;22;20018;-89
2022/05/26 14:37:21;;;;;;;3.03;0.93;;;;;;;;;;6283724;22;20041;-89
2022/05/26 14:40:14;;;;;;;2.72;0.82;;;;;;;;;;6283524;22;20026;-89
2022/05/26 14:42:47;;;;;;;3.22;0.68;;;;;;;;;;6320764;22;20015;-87
2022/05/26 14:45:21;;;;;;;2.35;0.80;;;;;;;;;;6318729;22;20022;-89
2022/05/26 14:47:49;;;;;;;4.53;1.38;;;;;;;;;;6283206;22;20061;-87
2022/05/26 14:50:17;;;;;;;2.38;0.73;;;;;;;;;;6319371;22;20446;-87
2022/05/26 14:52:48;;;;;;;4.40;0.93;;;;;;;;;;6308708;22;20027;-89
2022/05/26 14:55:44;;;;;;;3.50;0.90;;;;;;;;;;6283146;22;20026;-87
2022/05/26 14:58:14;;;;;;;7.05;0.73;;;;;;;;;;6308681;22;20025;-89
2022/05/26 15:00:47;;;;;;;3.78;1.00;;;;;;;;;;6319013;22;20011;-89
2022/05/26 15:03:17;;;;;;;4.78;0.82;;;;;;;;;;6284346;22;20033;-86
2022/05/26 15:05:45;;;;;;;4.90;1.00;;;;;;;;;;6283511;22;20053;-87
2022/05/26 15:08:26;;;;;;;5.05;1.00;;;;;;;;;;6283041;22;20080;-87
2022/05/26 15:10:53;;;;;;;4.40;1.33;;;;;;;;;;6283304;22;20030;-85
2022/05/26 15:13:30;;;;;;;5.50;0.88;;;;;;;;;;6281909;22;20065;-85
2022/05/26 15:15:59;;;;;;;5.45;0.95;;;;;;;;;;6345703;22;20098;-87
2022/05/26 15:18:31;;;;;;;4.25;1.45;;;;;;;;;;6318615;22;20015;-87
2022/05/26 15:21:23;;;;;;;6.97;1.23;;;;;;;;;;6286214;22;20072;-86
2022/05/26 15:23:51;;;;;;;5.45;1.35;;;;;;;;;;6317526;22;20014;-86
2022/05/26 15:26:21;;;;;;;9.63;1.33;;;;;;;;;;6345409;22;20022;-86
2022/05/26 15:28:51;;;;;;;4.05;1.20;;;;;;;;;;6307274;22;20045;-86
2022/05/26 15:31:31;;;;;;;8.13;2.38;;;;;;;;;;6281788;22;20519;-85
2022/05/26 15:34:01;;;;;;;5.60;1.10;;;;;;;;;;6257068;22;20034;-85
2022/05/26 15:36:30;;;;;;;4.38;1.38;;;;;;;;;;6317408;22;20127;-86
2022/05/26 15:39:03;;;;;;;4.43;1.20;;;;;;;;;;6317890;22;20526;-87
2022/05/26 15:41:31;;;;;;;6.03;1.20;;;;;;;;;;6283272;22;20050;-85
2022/05/26 15:44:05;;;;;;;4.55;1.13;;;;;;;;;;6319415;22;20089;-86
2022/05/26 15:46:47;;;;;;;4.20;1.10;;;;;;;;;;6316819;22;20011;-86
2022/05/26 15:49:18;;;;;;;4.72;1.05;;;;;;;;;;6317798;22;20015;-87
2022/05/26 15:51:48;;;;;;;3.78;1.08;;;;;;;;;;6317617;22;20022;-87
2022/05/26 15:54:27;;;;;;;4.35;1.00;;;;;;;;;;6317292;22;20018;-86
2022/05/26 15:56:56;;;;;;;3.83;1.20;;;;;;;;;;6337316;22;20022;-87
2022/05/26 15:59:25;;;;;;;7.75;1.45;;;;;;;;;;6306467;22;20392;-86
2022/05/26 16:01:54;;;;;;;8.27;1.50;;;;;;;;;;6280277;22;20038;-87
2022/05/26 16:04:23;;;;;;;7.03;1.58;;;;;;;;;;6284509;22;20196;-89
2022/05/26 16:06:53;;;;;;;4.40;1.30;;;;;;;;;;6283982;22;20268;-89
2022/05/26 16:09:47;;;;;;;5.90;1.75;;;;;;;;;;6326149;22;20021;-89
2022/05/26 16:12:19;;;;;;;5.60;1.48;;;;;;;;;;6346865;22;20019;-88
2022/05/26 16:14:47;;;;;;;6.43;1.88;;;;;;;;;;6320515;22;20317;-88
2022/05/26 16:17:16;;;;;;;6.47;1.08;;;;;;;;;;6323388;22;20022;-88
2022/05/26 16:20:13;;;;;;;6.68;1.50;;;;;;;;;;6284689;22;20014;-83
2022/05/26 16:22:43;;;;;;;5.43;1.20;;;;;;;;;;6296613;22;20015;-92
2022/05/26 16:25:13;;;;;;;7.25;1.60;;;;;;;;;;6311313;22;20117;-90
2022/05/26 16:27:42;;;;;;;5.70;1.38;;;;;;;;;;6322528;22;20417;-91
2022/05/26 16:30:18;;;;;;;6.35;1.38;;;;;;;;;;6285557;22;20076;-90
2022/05/26 16:32:45;;;;;;;5.05;1.35;;;;;;;;;;6260765;22;20030;-90
2022/05/26 16:38:01;;;;;;;5.05;1.40;;;;;;;;;;6311163;22;20105;-90
2022/05/26 16:40:53;;;;;;;7.20;1.42;;;;;;;;;;6327335;22;20027;-90
2022/05/26 16:43:45;;;;;;;7.72;1.38;;;;;;;;;;6311280;22;20010;-90
2022/05/26 16:46:13;;;;;;;3.60;1.73;;;;;;;;;;6349498;22;20015;-91
2022/05/26 16:48:41;;;;;;;7.13;1.58;;;;;;;;;;6262792;22;20022;-92
2022/05/26 16:51:09;;;;;;;8.93;1.80;;;;;;;;;;6287845;22;20523;-91
2022/05/26 16:53:37;;;;;;;5.97;1.73;;;;;;;;;;6287001;22;20030;-92
2022/05/26 16:56:07;;;;;;;4.88;2.10;;;;;;;;;;6313087;22;20019;-91
2022/05/26 16:58:36;;;;;;;8.63;1.80;;;;;;;;;;6322441;22;20029;-91
2022/05/26 17:01:29;;;;;;;5.05;1.55;;;;;;;;;;6350206;22;20068;-91
2022/05/26 17:03:57;;;;;;;3.95;1.70;;;;;;;;;;6289122;22;20026;-91
2022/05/26 17:06:25;;;;;;;7.35;2.20;;;;;;;;;;6285328;22;20022;-92
2022/05/26 17:08:55;;;;;;;6.47;1.85;;;;;;;;;;6321545;22;20060;-90
2022/05/26 17:11:28;;;;;;;12.10;5.15;;;;;;;;;;6285129;22;20093;-90
2022/05/26 17:22:14;;;;;;;6.45;1.75;;;;;;;;;;6295871;22;20046;-93